createdAt,value
2022-08-07T00:02:35.435Z,16.05
2022-08-07T00:04:09.493Z,16.08
2022-08-07T00:06:41.126Z,16.11
2022-08-07T00:09:22.637Z,16.14
2022-08-07T00:11:56.069Z,16.16
2022-08-07T00:14:31.038Z,16.19
2022-08-07T00:17:01.702Z,16.23
2022-08-07T00:20:00.173Z,16.24
2022-08-07T00:22:24.860Z,16.23
2022-08-07T00:25:11.172Z,16.27
2022-08-07T00:27:53.274Z,16.28
2022-08-07T00:30:27.382Z,16.29
2022-08-07T00:33:01.063Z,16.31
2022-08-07T00:35:30.482Z,16.31
2022-08-07T00:38:01.675Z,16.27
2022-08-07T00:40:39.687Z,16.27
2022-08-07T00:44:00.854Z,16.28
2022-08-07T00:46:02.245Z,16.27
2022-08-07T00:48:32.199Z,16.26
2022-08-07T00:51:01.246Z,16.26
2022-08-07T00:53:38.404Z,16.28
2022-08-07T00:56:13.888Z,16.26
2022-08-07T00:58:46.579Z,16.22
2022-08-07T01:01:17.538Z,16.19
2022-08-07T01:03:56.283Z,16.17
2022-08-07T01:06:30.024Z,16.13
2022-08-07T01:09:01.179Z,16.09
2022-08-07T01:12:26.539Z,16.11
2022-08-07T01:14:21.118Z,16.14
2022-08-07T01:16:56.343Z,16.15
2022-08-07T01:19:26.823Z,16.15
2022-08-07T01:21:55.675Z,16.16
2022-08-07T01:24:31.026Z,16.18
2022-08-07T01:27:00.860Z,16.16
2022-08-07T01:29:33.945Z,16.16
2022-08-07T01:32:05.427Z,16.13
2022-08-07T01:34:34.275Z,16.11
2022-08-07T01:37:17.232Z,16.08
2022-08-07T01:39:48.106Z,16.08
2022-08-07T01:42:40.292Z,16.08
2022-08-07T01:45:18.232Z,16.11
2022-08-07T01:48:29.896Z,16.11
2022-08-07T01:50:46.949Z,16.13
2022-08-07T01:53:21.902Z,16.13
2022-08-07T01:56:15.019Z,16.17
2022-08-07T01:59:01.125Z,16.19
2022-08-07T02:02:01.691Z,16.23
2022-08-07T02:04:28.848Z,16.24
2022-08-07T02:07:03.099Z,16.25
2022-08-07T02:09:51.818Z,16.23
2022-08-07T02:12:29.310Z,16.24
2022-08-07T02:15:01.717Z,16.25
2022-08-07T02:17:49.481Z,16.24
2022-08-07T02:20:23.366Z,16.24
2022-08-07T02:22:59.826Z,16.25
2022-08-07T02:26:10.021Z,16.25
2022-08-07T02:28:25.459Z,16.27
2022-08-07T02:30:59.145Z,16.28
2022-08-07T02:33:42.166Z,16.32
2022-08-07T02:36:29.776Z,16.33
2022-08-07T02:39:16.082Z,16.34
2022-08-07T02:41:54.329Z,16.34
2022-08-07T02:44:27.730Z,16.35
2022-08-07T02:47:06.174Z,16.36
2022-08-07T02:49:58.572Z,16.35
2022-08-07T02:52:37.582Z,16.34
2022-08-07T02:55:28.033Z,16.34
2022-08-07T02:58:06.686Z,16.34
2022-08-07T03:00:40.881Z,16.36
2022-08-07T03:03:22.614Z,16.36
2022-08-07T03:05:54.865Z,16.34
2022-08-07T03:08:29.133Z,16.35
2022-08-07T03:10:59.748Z,16.35
2022-08-07T03:13:39.026Z,16.36
2022-08-07T03:16:18.018Z,16.37
2022-08-07T03:18:52.302Z,16.38
2022-08-07T03:21:20.841Z,16.39
2022-08-07T03:24:19.036Z,16.38
2022-08-07T03:26:58.358Z,16.38
2022-08-07T03:29:38.719Z,16.38
2022-08-07T03:32:15.914Z,16.37
2022-08-07T03:35:16.937Z,16.36
2022-08-07T03:37:46.470Z,16.34
2022-08-07T03:40:30.805Z,16.29
2022-08-07T03:43:10.031Z,16.25
2022-08-07T03:45:47.582Z,16.21
2022-08-07T03:48:18.701Z,16.20
2022-08-07T03:50:56.169Z,16.18
2022-08-07T03:54:05.915Z,16.18
2022-08-07T03:56:33.362Z,16.16
2022-08-07T03:59:12.810Z,16.12
2022-08-07T04:01:46.143Z,16.10
2022-08-07T04:04:17.963Z,16.12
2022-08-07T04:06:50.862Z,16.10
2022-08-07T04:09:23.313Z,16.09
2022-08-07T04:12:26.748Z,16.08
2022-08-07T04:14:47.739Z,16.07
2022-08-07T04:17:20.962Z,16.07
2022-08-07T04:19:53.974Z,16.03
2022-08-07T04:22:29.306Z,16.01
2022-08-07T04:25:02.137Z,15.98
2022-08-07T04:27:36.256Z,15.94
2022-08-07T04:30:35.928Z,15.87
2022-08-07T04:33:24.343Z,15.87
2022-08-07T04:35:54.484Z,15.84
2022-08-07T04:38:28.301Z,15.84
2022-08-07T04:40:57.997Z,15.81
2022-08-07T04:44:12.334Z,15.79
2022-08-07T04:46:59.398Z,15.81
2022-08-07T04:49:40.293Z,15.81
2022-08-07T04:52:55.946Z,15.78
2022-08-07T04:58:11.155Z,15.78
2022-08-07T04:59:09.210Z,15.71
2022-08-07T05:01:31.454Z,15.69
2022-08-07T05:04:07.589Z,15.68
2022-08-07T05:06:51.529Z,15.69
2022-08-07T05:09:46.282Z,15.67
2022-08-07T05:12:27.268Z,15.66
2022-08-07T05:15:21.693Z,15.68
2022-08-07T05:18:08.765Z,15.65
2022-08-07T05:20:42.869Z,15.68
2022-08-07T05:23:30.904Z,15.68
2022-08-07T05:26:13.471Z,15.69
2022-08-07T05:28:57.485Z,15.71
2022-08-07T05:31:34.972Z,15.71
2022-08-07T05:34:11.932Z,15.72
2022-08-07T05:36:48.983Z,15.74
2022-08-07T05:40:16.797Z,15.76
2022-08-07T05:42:37.003Z,15.80
2022-08-07T05:45:25.783Z,15.83
2022-08-07T05:48:01.913Z,15.85
2022-08-07T05:50:39.494Z,15.87
2022-08-07T05:54:12.731Z,15.93
2022-08-07T05:56:03.085Z,15.96
2022-08-07T05:58:37.612Z,15.97
2022-08-07T06:01:12.348Z,16.00
2022-08-07T06:03:56.410Z,16.01
2022-08-07T06:06:29.792Z,16.02
2022-08-07T06:09:04.706Z,16.05
2022-08-07T06:11:36.125Z,16.08
2022-08-07T06:14:13.255Z,16.10
2022-08-07T06:16:56.205Z,16.09
2022-08-07T06:19:49.927Z,16.12
2022-08-07T06:22:23.817Z,16.13
2022-08-07T06:25:34.785Z,16.17
2022-08-07T06:28:08.909Z,16.19
2022-08-07T06:30:45.821Z,16.23
2022-08-07T06:33:20.256Z,16.24
2022-08-07T06:36:06.798Z,16.27
2022-08-07T06:38:59.475Z,16.31
2022-08-07T06:42:35.311Z,16.29
2022-08-07T06:45:17.880Z,16.30
2022-08-07T06:47:58.967Z,16.32
2022-08-07T06:50:47.770Z,16.35
2022-08-07T06:55:29.149Z,16.36
2022-08-07T06:56:15.105Z,16.42
2022-08-07T07:00:13.579Z,16.47
2022-08-07T07:01:42.001Z,16.51
2022-08-07T07:04:32.659Z,16.59
2022-08-07T07:07:10.416Z,16.66
2022-08-07T07:09:48.793Z,16.73
2022-08-07T07:12:30.700Z,16.77
2022-08-07T07:15:23.941Z,16.78
2022-08-07T07:18:14.733Z,16.78
2022-08-07T07:21:13.671Z,16.75
2022-08-07T07:24:05.930Z,16.76
2022-08-07T07:26:39.737Z,16.74
2022-08-07T07:29:39.867Z,16.77
2022-08-07T07:32:08.275Z,16.78
2022-08-07T07:34:40.747Z,16.79
2022-08-07T07:37:21.650Z,16.79
2022-08-07T07:40:14.575Z,16.81
2022-08-07T07:42:47.131Z,16.86
2022-08-07T07:46:35.743Z,16.85
2022-08-07T07:48:34.871Z,16.93
2022-08-07T07:51:08.116Z,16.95
2022-08-07T07:53:51.409Z,17.00
2022-08-07T07:56:30.409Z,17.03
2022-08-07T07:59:04.371Z,17.07
2022-08-07T08:02:03.776Z,17.08
2022-08-07T08:04:28.045Z,17.12
2022-08-07T08:06:56.384Z,17.12
2022-08-07T08:09:29.955Z,17.11
2022-08-07T08:12:03.060Z,17.11
2022-08-07T08:14:37.022Z,17.14
2022-08-07T08:17:56.265Z,17.15
2022-08-07T08:20:17.115Z,17.17
2022-08-07T08:23:14.421Z,17.24
2022-08-07T08:26:06.961Z,17.34
2022-08-07T08:28:44.880Z,17.43
2022-08-07T08:31:29.874Z,17.49
2022-08-07T08:33:59.112Z,17.63
2022-08-07T08:36:30.315Z,17.72
2022-08-07T08:39:01.942Z,17.85
2022-08-07T08:41:59.427Z,18.04
2022-08-07T08:44:48.696Z,18.13
2022-08-07T08:47:47.455Z,18.20
2022-08-07T08:50:39.570Z,18.29
2022-08-07T08:53:41.354Z,18.40
2022-08-07T08:56:16.852Z,18.47
2022-08-07T08:59:06.480Z,18.48
2022-08-07T09:01:49.142Z,18.55
2022-08-07T09:04:36.704Z,18.58
2022-08-07T09:07:45.944Z,18.57
2022-08-07T09:10:21.473Z,18.46
2022-08-07T09:13:11.029Z,18.38
2022-08-07T09:16:24.755Z,18.34
2022-08-07T09:18:58.393Z,18.28
2022-08-07T09:22:22.656Z,18.25
2022-08-07T09:25:14.511Z,18.24
2022-08-07T09:27:54.518Z,18.21
2022-08-07T09:30:40.379Z,18.19
2022-08-07T09:33:57.580Z,18.20
2022-08-07T09:36:37.022Z,18.21
2022-08-07T09:39:55.489Z,18.20
2022-08-07T09:42:52.832Z,18.21
2022-08-07T09:47:42.586Z,18.23
2022-08-07T09:50:02.458Z,18.27
2022-08-07T09:52:15.973Z,18.35
2022-08-07T09:54:47.911Z,18.52
2022-08-07T09:57:46.451Z,18.76
2022-08-07T10:00:20.619Z,18.95
2022-08-07T10:04:05.331Z,19.19
2022-08-07T10:06:19.695Z,19.37
2022-08-07T10:09:10.458Z,19.39
2022-08-07T10:12:52.914Z,19.29
2022-08-07T10:15:46.426Z,19.17
2022-08-07T10:18:32.318Z,19.09
2022-08-07T10:22:13.972Z,19.02
2022-08-07T10:24:59.742Z,18.98
2022-08-07T10:27:30.257Z,18.94
2022-08-07T10:30:20.406Z,18.87
2022-08-07T10:33:03.470Z,18.85
2022-08-07T10:35:55.724Z,18.83
2022-08-07T10:38:48.716Z,18.84
2022-08-07T10:41:52.368Z,18.86
2022-08-07T10:44:54.601Z,18.88
2022-08-07T10:47:54.463Z,18.96
2022-08-07T10:50:35.600Z,19.11
2022-08-07T10:53:25.107Z,19.44
2022-08-07T10:56:30.838Z,20.21
2022-08-07T10:59:15.666Z,20.64
2022-08-07T11:02:33.358Z,21.51
2022-08-07T11:05:19.283Z,22.55
2022-08-07T11:08:02.793Z,23.28
2022-08-07T11:11:00.096Z,23.76
2022-08-07T11:14:44.215Z,23.66
2022-08-07T11:16:52.801Z,23.39
2022-08-07T11:19:50.244Z,23.10
2022-08-07T11:22:43.977Z,22.84
2022-08-07T11:25:19.775Z,22.62
2022-08-07T11:28:04.881Z,22.33
2022-08-07T11:30:48.160Z,22.08
2022-08-07T11:33:54.047Z,21.88
2022-08-07T11:36:30.800Z,21.68
2022-08-07T11:39:01.851Z,21.60
2022-08-07T11:42:02.018Z,21.65
2022-08-07T11:44:34.456Z,21.81
2022-08-07T11:47:38.522Z,21.85
2022-08-07T11:50:32.274Z,21.98
2022-08-07T11:53:09.897Z,22.14
2022-08-07T11:56:25.715Z,22.24
2022-08-07T12:00:08.047Z,22.33
2022-08-07T12:02:30.513Z,22.35
2022-08-07T12:05:41.745Z,22.33
2022-08-07T12:08:38.533Z,22.88
2022-08-07T12:11:21.386Z,23.22
2022-08-07T12:14:08.514Z,23.49
2022-08-07T12:16:52.088Z,23.74
2022-08-07T12:20:04.744Z,23.85
2022-08-07T12:22:58.433Z,23.64
2022-08-07T12:26:05.837Z,23.51
2022-08-07T12:28:53.853Z,24.07
2022-08-07T12:31:52.985Z,24.90
2022-08-07T12:34:21.321Z,25.36
2022-08-07T12:36:54.764Z,25.20
2022-08-07T12:39:44.049Z,25.23
2022-08-07T12:42:22.783Z,25.67
2022-08-07T12:45:28.545Z,25.87
2022-08-07T12:48:28.500Z,26.04
2022-08-07T12:51:17.550Z,25.69
2022-08-07T12:54:03.321Z,25.55
2022-08-07T12:56:51.425Z,25.50
2022-08-07T12:59:37.105Z,25.22
2022-08-07T13:03:01.061Z,24.73
2022-08-07T13:06:03.524Z,24.20
2022-08-07T13:09:12.694Z,24.15
2022-08-07T13:12:02.099Z,24.21
2022-08-07T13:15:01.913Z,24.24
2022-08-07T13:17:46.875Z,24.01
2022-08-07T13:20:27.759Z,23.80
2022-08-07T13:24:00.064Z,24.15
2022-08-07T13:26:00.878Z,24.74
2022-08-07T13:28:38.154Z,24.94
2022-08-07T13:31:13.256Z,25.16
2022-08-07T13:34:31.778Z,25.74
2022-08-07T13:36:47.766Z,26.03
2022-08-07T13:40:32.716Z,26.24
2022-08-07T13:42:26.933Z,26.02
2022-08-07T13:46:06.187Z,26.09
2022-08-07T13:48:05.530Z,26.42
2022-08-07T13:50:45.082Z,26.38
2022-08-07T13:53:59.882Z,26.30
2022-08-07T13:56:35.980Z,26.00
2022-08-07T13:59:15.833Z,25.78
2022-08-07T14:01:59.401Z,25.71
2022-08-07T14:04:49.557Z,26.01
2022-08-07T14:07:23.090Z,26.19
2022-08-07T14:10:14.966Z,26.39
2022-08-07T14:13:00.589Z,26.34
2022-08-07T14:15:32.025Z,26.12
2022-08-07T14:18:24.041Z,25.85
2022-08-07T14:21:21.050Z,25.41
2022-08-07T14:24:12.870Z,25.07
2022-08-07T14:26:51.132Z,24.81
2022-08-07T14:30:09.509Z,24.54
2022-08-07T14:32:21.640Z,24.25
2022-08-07T14:34:54.518Z,23.89
2022-08-07T14:37:23.733Z,23.71
2022-08-07T14:40:26.284Z,23.54
2022-08-07T14:43:55.467Z,23.39
2022-08-07T14:46:00.883Z,23.23
2022-08-07T14:48:35.911Z,23.14
2022-08-07T14:54:09.992Z,22.87
2022-08-07T14:56:52.303Z,22.75
2022-08-07T15:00:05.568Z,22.57
2022-08-07T15:02:32.024Z,22.22
2022-08-07T15:05:04.495Z,21.91
2022-08-07T15:08:01.173Z,21.64
2022-08-07T15:10:58.571Z,21.43
2022-08-07T15:13:35.872Z,21.32
2022-08-07T15:16:11.428Z,21.27
2022-08-07T15:18:51.683Z,21.39
2022-08-07T15:21:44.205Z,21.52
2022-08-07T15:25:14.758Z,21.51
2022-08-07T15:27:34.291Z,21.39
2022-08-07T15:36:01.176Z,21.36
2022-08-07T15:38:59.040Z,21.27
2022-08-07T15:44:19.701Z,21.03
2022-08-07T15:50:06.077Z,20.82
2022-08-07T15:52:38.231Z,20.73
2022-08-07T15:55:12.173Z,20.66
2022-08-07T15:57:48.624Z,20.59
2022-08-07T16:00:30.987Z,20.60
2022-08-07T16:03:20.977Z,20.66
2022-08-07T16:06:07.103Z,20.69
2022-08-07T16:08:42.642Z,20.70
2022-08-07T16:11:48.957Z,20.70
2022-08-07T16:14:32.154Z,20.69
2022-08-07T16:18:01.624Z,20.66
2022-08-07T16:20:34.248Z,20.53
2022-08-07T16:23:54.557Z,20.47
2022-08-07T16:26:30.722Z,20.52
2022-08-07T16:30:05.550Z,20.48
2022-08-07T16:32:03.918Z,20.46
2022-08-07T16:34:49.849Z,20.39
2022-08-07T16:38:04.777Z,20.30
2022-08-07T16:41:12.034Z,20.29
2022-08-07T16:44:31.803Z,20.27
2022-08-07T16:47:11.866Z,20.28
2022-08-07T16:50:27.837Z,20.28
2022-08-07T16:54:02.343Z,20.30
2022-08-07T16:56:20.816Z,20.27
2022-08-07T16:59:10.698Z,20.22
2022-08-07T17:02:14.181Z,20.12
2022-08-07T17:06:02.225Z,20.02
2022-08-07T17:09:10.891Z,20.01
2022-08-07T17:12:34.509Z,20.13
2022-08-07T17:15:03.469Z,20.26
2022-08-07T17:17:47.332Z,20.31
2022-08-07T17:20:41.895Z,20.36
2022-08-07T17:23:32.471Z,20.33
2022-08-07T17:26:24.318Z,20.30
2022-08-07T17:28:58.074Z,20.30
2022-08-07T17:31:44.449Z,20.27
2022-08-07T17:34:57.200Z,20.28
2022-08-07T17:38:09.412Z,20.28
2022-08-07T17:40:30.254Z,20.25
2022-08-07T17:43:18.539Z,20.29
2022-08-07T17:46:08.262Z,20.37
2022-08-07T17:48:49.563Z,20.39
2022-08-07T17:51:24.389Z,20.46
2022-08-07T17:54:29.538Z,20.52
2022-08-07T17:57:58.679Z,20.58
2022-08-07T18:00:48.998Z,20.55
2022-08-07T18:04:04.673Z,20.48
2022-08-07T18:06:38.119Z,20.37
2022-08-07T18:09:08.623Z,20.21
2022-08-07T18:12:16.451Z,20.14
2022-08-07T18:14:54.537Z,20.10
2022-08-07T18:18:45.046Z,20.10
2022-08-07T18:21:07.067Z,20.07
2022-08-07T18:24:02.727Z,20.00
2022-08-07T18:27:01.993Z,19.98
2022-08-07T18:30:07.391Z,19.93
2022-08-07T18:33:11.062Z,19.91
2022-08-07T18:36:08.135Z,19.81
2022-08-07T18:38:57.071Z,19.73
2022-08-07T18:41:46.281Z,19.68
2022-08-07T18:45:43.415Z,19.61
2022-08-07T18:48:05.701Z,19.56
2022-08-07T18:50:56.134Z,19.55
2022-08-07T18:53:36.600Z,19.55
2022-08-07T18:56:38.975Z,19.45
2022-08-07T18:59:47.981Z,19.36
2022-08-07T19:02:52.552Z,19.32
2022-08-07T19:06:02.819Z,19.25
2022-08-07T19:08:31.305Z,19.13
2022-08-07T19:11:06.850Z,19.05
2022-08-07T19:13:52.801Z,18.89
2022-08-07T19:17:05.460Z,18.78
2022-08-07T19:19:46.787Z,18.66
2022-08-07T19:22:36.204Z,18.60
2022-08-07T19:26:22.644Z,18.51
2022-08-07T19:28:29.693Z,18.41
2022-08-07T19:31:42.837Z,18.30
2022-08-07T19:34:33.991Z,18.21
2022-08-07T19:37:17.801Z,18.15
2022-08-07T19:39:57.481Z,18.08
2022-08-07T19:42:31.719Z,18.03
2022-08-07T19:46:04.874Z,17.98
2022-08-07T19:48:02.891Z,17.90
2022-08-07T19:50:44.117Z,17.86
2022-08-07T19:54:33.903Z,17.79
2022-08-07T19:56:58.592Z,17.69
2022-08-07T19:58:58.401Z,17.62
2022-08-07T20:01:52.863Z,17.54
2022-08-07T20:04:32.237Z,17.47
2022-08-07T20:07:10.033Z,17.45
2022-08-07T20:10:36.511Z,17.37
2022-08-07T20:12:42.879Z,17.31
2022-08-07T20:15:22.037Z,17.26
2022-08-07T20:18:01.729Z,17.22
2022-08-07T20:20:33.411Z,17.17
2022-08-07T20:23:23.419Z,17.14
2022-08-07T20:25:56.184Z,17.13
2022-08-07T20:28:29.972Z,17.10
2022-08-07T20:30:59.328Z,17.06
2022-08-07T20:33:37.929Z,17.01
2022-08-07T20:36:09.852Z,16.99
2022-08-07T20:38:53.294Z,16.97
2022-08-07T20:41:28.964Z,16.95
2022-08-07T20:44:10.436Z,16.95
2022-08-07T20:46:43.731Z,16.94
2022-08-07T20:49:58.976Z,16.89
2022-08-07T20:52:17.281Z,16.82
2022-08-07T20:54:53.213Z,16.77
2022-08-07T20:57:28.125Z,16.72
2022-08-07T21:00:09.526Z,16.65
2022-08-07T21:02:58.710Z,16.60
2022-08-07T21:05:51.019Z,16.50
2022-08-07T21:08:36.891Z,16.45
2022-08-07T21:11:10.733Z,16.42
2022-08-07T21:14:16.665Z,16.34
2022-08-07T21:17:06.524Z,16.28
2022-08-07T21:19:50.780Z,16.25
2022-08-07T21:22:20.826Z,16.23
2022-08-07T21:25:13.769Z,16.21
2022-08-07T21:27:47.315Z,16.19
2022-08-07T21:30:18.979Z,16.17
2022-08-07T21:33:04.477Z,16.13
2022-08-07T21:36:04.476Z,16.10
2022-08-07T21:39:46.809Z,16.03
2022-08-07T21:42:37.541Z,15.96
2022-08-07T21:46:05.436Z,15.92
2022-08-07T21:48:28.743Z,15.95
2022-08-07T21:51:25.051Z,16.00
2022-08-07T21:54:20.108Z,16.00
2022-08-07T21:57:15.888Z,15.93
2022-08-07T22:00:22.213Z,15.85
2022-08-07T22:02:58.341Z,15.81
2022-08-07T22:05:46.157Z,15.79
2022-08-07T22:08:23.367Z,15.74
2022-08-07T22:10:57.983Z,15.71
2022-08-07T22:13:50.907Z,15.67
2022-08-07T22:16:44.259Z,15.67
2022-08-07T22:19:29.484Z,15.64
2022-08-07T22:22:20.920Z,15.61
2022-08-07T22:24:55.172Z,15.53
2022-08-07T22:28:07.801Z,15.51
2022-08-07T22:31:45.078Z,15.48
2022-08-07T22:34:13.667Z,15.46
2022-08-07T22:36:52.517Z,15.43
2022-08-07T22:39:23.943Z,15.41
2022-08-07T22:42:19.590Z,15.40
2022-08-07T22:45:03.748Z,15.36
2022-08-07T22:47:31.791Z,15.28
2022-08-07T22:50:07.170Z,15.24
2022-08-07T22:52:39.902Z,15.19
2022-08-07T22:55:39.967Z,15.18
2022-08-07T22:58:28.033Z,15.15
2022-08-07T23:01:22.256Z,15.09
2022-08-07T23:04:57.967Z,15.06
2022-08-07T23:07:41.527Z,15.07
2022-08-07T23:10:41.116Z,15.09
2022-08-07T23:13:21.389Z,15.08
2022-08-07T23:16:48.400Z,15.08
2022-08-07T23:19:47.998Z,15.08
2022-08-07T23:22:49.769Z,15.10
2022-08-07T23:25:31.928Z,15.18
2022-08-07T23:28:33.360Z,15.31
2022-08-07T23:32:49.528Z,15.40
2022-08-07T23:34:41.134Z,15.46
2022-08-07T23:38:00.915Z,15.57
2022-08-07T23:40:33.980Z,15.64
2022-08-07T23:43:16.922Z,15.69
2022-08-07T23:46:11.152Z,15.75
2022-08-07T23:49:20.106Z,15.80
2022-08-07T23:53:00.046Z,15.85
2022-08-07T23:54:53.008Z,15.87
2022-08-07T23:57:28.185Z,15.91
